createdAt,value
2023-04-07T00:00:32.455Z,52.91
2023-04-07T00:03:35.783Z,52.72
2023-04-07T00:06:38.741Z,53.24
2023-04-07T00:09:42.025Z,53.64
2023-04-07T00:12:46.850Z,53.28
2023-04-07T00:15:49.629Z,53.73
2023-04-07T00:18:52.605Z,53.90
2023-04-07T00:21:56.268Z,53.49
2023-04-07T00:24:59.009Z,54.09
2023-04-07T00:28:03.636Z,54.13
2023-04-07T00:31:06.561Z,55.94
2023-04-07T00:34:10.084Z,55.74
2023-04-07T00:37:13.003Z,54.43
2023-04-07T00:40:15.750Z,54.31
2023-04-07T00:43:19.991Z,54.07
2023-04-07T00:46:24.620Z,54.41
2023-04-07T00:49:28.467Z,55.03
2023-04-07T00:52:31.922Z,55.08
2023-04-07T00:55:34.622Z,56.10
2023-04-07T00:58:38.833Z,56.32
2023-04-07T01:01:47.825Z,55.09
2023-04-07T01:04:55.850Z,53.86
2023-04-07T01:08:05.316Z,55.09
2023-04-07T01:11:15.618Z,55.85
2023-04-07T01:14:20.633Z,56.48
2023-04-07T01:17:26.736Z,56.26
2023-04-07T01:20:35.042Z,55.81
2023-04-07T01:24:02.530Z,55.87
2023-04-07T01:27:15.245Z,55.61
2023-04-07T01:30:20.753Z,56.42
2023-04-07T01:33:24.409Z,56.45
2023-04-07T01:36:29.482Z,56.37
2023-04-07T01:39:34.646Z,56.09
2023-04-07T01:42:40.255Z,56.54
2023-04-07T01:45:45.904Z,56.79
2023-04-07T01:48:50.334Z,57.34
2023-04-07T01:51:54.056Z,56.18
2023-04-07T01:54:57.846Z,57.74
2023-04-07T01:58:05.662Z,56.93
2023-04-07T02:01:09.939Z,56.47
2023-04-07T02:04:16.959Z,56.71
2023-04-07T02:07:22.075Z,56.52
2023-04-07T02:10:26.816Z,55.13
2023-04-07T02:13:31.271Z,56.05
2023-04-07T02:16:37.161Z,56.79
2023-04-07T02:19:40.727Z,55.85
2023-04-07T02:22:44.906Z,56.61
2023-04-07T02:25:48.624Z,55.72
2023-04-07T02:28:51.316Z,55.95
2023-04-07T02:31:56.989Z,55.19
2023-04-07T02:34:59.821Z,57.14
2023-04-07T02:38:02.649Z,56.66
2023-04-07T02:41:06.667Z,56.27
2023-04-07T02:44:09.455Z,56.55
2023-04-07T02:47:13.693Z,56.53
2023-04-07T02:50:18.843Z,56.62
2023-04-07T02:53:21.898Z,57.00
2023-04-07T02:56:24.778Z,56.74
2023-04-07T02:59:27.783Z,57.30
2023-04-07T03:02:32.170Z,57.52
2023-04-07T03:05:35.050Z,57.18
2023-04-07T03:08:37.988Z,57.59
2023-04-07T03:11:41.631Z,58.44
2023-04-07T03:14:44.601Z,58.38
2023-04-07T03:17:48.887Z,57.98
2023-04-07T03:20:52.881Z,57.65
2023-04-07T03:23:56.058Z,58.34
2023-04-07T03:26:58.974Z,58.47
2023-04-07T03:30:01.699Z,57.96
2023-04-07T03:33:06.157Z,57.74
2023-04-07T03:36:09.368Z,57.68
2023-04-07T03:39:12.566Z,56.72
2023-04-07T03:42:15.622Z,57.84
2023-04-07T03:45:18.761Z,57.81
2023-04-07T03:48:23.227Z,57.84
2023-04-07T03:51:27.557Z,58.24
2023-04-07T03:54:30.532Z,56.69
2023-04-07T03:57:33.233Z,57.41
2023-04-07T04:00:36.009Z,58.33
2023-04-07T04:03:40.559Z,57.95
2023-04-07T04:06:43.382Z,58.54
2023-04-07T04:09:46.423Z,58.90
2023-04-07T04:12:50.501Z,57.94
2023-04-07T04:15:53.540Z,58.91
2023-04-07T04:18:57.939Z,58.00
2023-04-07T04:22:00.752Z,59.32
2023-04-07T04:25:04.287Z,58.74
2023-04-07T04:28:07.740Z,59.78
2023-04-07T04:31:10.567Z,57.63
2023-04-07T04:34:14.784Z,57.65
2023-04-07T04:37:17.520Z,57.80
2023-04-07T04:40:20.924Z,58.13
2023-04-07T04:43:23.780Z,60.18
2023-04-07T04:46:27.292Z,58.37
2023-04-07T04:49:31.555Z,57.55
2023-04-07T04:52:34.389Z,59.33
2023-04-07T04:55:37.334Z,58.04
2023-04-07T04:58:42.128Z,57.81
2023-04-07T05:01:45.860Z,56.96
2023-04-07T05:04:50.336Z,57.66
2023-04-07T05:07:53.262Z,57.21
2023-04-07T05:10:56.198Z,58.19
2023-04-07T05:13:59.383Z,57.22
2023-04-07T05:17:02.132Z,58.58
2023-04-07T05:20:07.865Z,57.63
2023-04-07T05:23:10.685Z,57.92
2023-04-07T05:26:13.364Z,57.18
2023-04-07T05:29:16.375Z,57.05
2023-04-07T05:32:20.274Z,57.38
2023-04-07T05:35:24.424Z,57.47
2023-04-07T05:38:27.425Z,57.09
2023-04-07T05:41:30.587Z,56.56
2023-04-07T05:44:33.884Z,56.54
2023-04-07T05:47:36.901Z,57.12
2023-04-07T05:50:42.226Z,56.09
2023-04-07T05:53:45.027Z,56.36
2023-04-07T05:56:48.479Z,56.32
2023-04-07T05:59:51.387Z,55.92
2023-04-07T06:02:54.285Z,55.88
2023-04-07T06:05:59.428Z,56.77
2023-04-07T06:09:02.393Z,56.11
2023-04-07T06:12:06.834Z,54.50
2023-04-07T06:15:10.474Z,55.33
2023-04-07T06:18:13.195Z,56.40
2023-04-07T06:21:17.358Z,55.79
2023-04-07T06:24:22.631Z,55.95
2023-04-07T06:27:25.578Z,55.29
2023-04-07T06:30:28.518Z,56.04
2023-04-07T06:33:31.485Z,55.05
2023-04-07T06:36:36.211Z,53.94
2023-04-07T06:39:39.289Z,52.46
2023-04-07T06:42:42.000Z,52.06
2023-04-07T06:45:45.028Z,51.39
2023-04-07T06:48:47.806Z,52.38
2023-04-07T06:51:52.289Z,52.20
2023-04-07T06:54:55.134Z,51.45
2023-04-07T06:57:58.196Z,52.17
2023-04-07T07:01:01.982Z,51.72
2023-04-07T07:04:05.874Z,50.32
2023-04-07T07:07:11.230Z,49.64
2023-04-07T07:10:14.159Z,49.87
2023-04-07T07:13:16.921Z,49.46
2023-04-07T07:16:20.269Z,49.69
2023-04-07T07:19:23.434Z,48.92
2023-04-07T07:22:27.973Z,48.13
2023-04-07T07:25:30.767Z,48.87
2023-04-07T07:28:33.501Z,48.36
2023-04-07T07:31:36.482Z,46.39
2023-04-07T07:34:39.478Z,44.51
2023-04-07T07:37:45.251Z,44.51
2023-04-07T07:40:48.274Z,44.37
2023-04-07T07:43:51.277Z,42.49
2023-04-07T07:46:54.090Z,42.62
2023-04-07T07:49:57.045Z,41.39
2023-04-07T07:53:01.368Z,40.64
2023-04-07T07:56:04.599Z,40.72
2023-04-07T07:59:07.418Z,39.08
2023-04-07T08:02:10.869Z,37.15
2023-04-07T08:05:13.940Z,37.87
2023-04-07T08:08:18.295Z,37.62
2023-04-07T08:11:21.404Z,37.85
2023-04-07T08:14:24.497Z,38.13
2023-04-07T08:17:27.383Z,38.24
2023-04-07T08:20:30.394Z,38.85
2023-04-07T08:23:34.785Z,39.76
2023-04-07T08:26:37.574Z,39.64
2023-04-07T08:29:40.330Z,39.19
2023-04-07T08:32:46.449Z,39.18
2023-04-07T08:35:49.276Z,38.45
2023-04-07T08:38:53.606Z,37.42
2023-04-07T08:41:57.022Z,37.29
2023-04-07T08:45:05.200Z,36.71
2023-04-07T08:48:16.667Z,36.91
2023-04-07T08:51:28.504Z,40.56
2023-04-07T08:54:33.962Z,37.26
2023-04-07T08:57:39.096Z,37.43
2023-04-07T09:00:42.951Z,37.90
2023-04-07T09:03:46.984Z,38.38
2023-04-07T09:06:51.947Z,37.82
2023-04-07T09:09:57.242Z,40.67
2023-04-07T09:13:00.267Z,36.69
2023-04-07T09:16:04.507Z,37.47
2023-04-07T09:19:07.867Z,35.84
2023-04-07T09:22:14.896Z,35.13
2023-04-07T09:25:22.951Z,35.72
2023-04-07T09:28:26.544Z,35.33
2023-04-07T09:31:47.411Z,36.20
2023-04-07T09:35:00.546Z,36.36
2023-04-07T09:38:05.783Z,37.33
2023-04-07T09:41:12.640Z,36.76
2023-04-07T09:44:17.078Z,36.45
2023-04-07T09:47:27.580Z,35.78
2023-04-07T09:50:35.286Z,35.92
2023-04-07T09:53:46.479Z,36.69
2023-04-07T09:56:51.208Z,37.81
2023-04-07T09:59:57.150Z,37.29
2023-04-07T10:03:00.891Z,37.96
2023-04-07T10:06:04.544Z,38.07
2023-04-07T10:09:08.241Z,38.24
2023-04-07T10:12:12.871Z,38.11
2023-04-07T10:15:16.606Z,38.17
2023-04-07T10:18:21.748Z,38.75
2023-04-07T10:21:24.611Z,38.58
2023-04-07T10:24:47.093Z,38.66
2023-04-07T10:28:01.240Z,38.46
2023-04-07T10:31:04.845Z,39.29
2023-04-07T10:34:07.663Z,39.31
2023-04-07T10:37:14.114Z,39.39
2023-04-07T10:40:29.832Z,40.50
2023-04-07T10:43:40.789Z,41.21
2023-04-07T10:47:10.841Z,41.37
2023-04-07T10:50:21.525Z,41.60
2023-04-07T10:53:24.532Z,41.70
2023-04-07T10:56:27.993Z,43.03
2023-04-07T10:59:33.024Z,44.35
2023-04-07T11:02:36.796Z,45.78
2023-04-07T11:05:40.347Z,46.13
2023-04-07T11:08:47.407Z,48.58
2023-04-07T11:11:52.484Z,49.69
2023-04-07T11:14:59.772Z,51.57
2023-04-07T11:18:24.588Z,52.15
2023-04-07T11:21:27.830Z,53.63
2023-04-07T11:24:33.335Z,55.44
2023-04-07T11:27:36.279Z,57.19
2023-04-07T11:30:46.056Z,57.05
2023-04-07T11:33:54.608Z,58.34
2023-04-07T11:36:59.650Z,58.81
2023-04-07T11:40:02.909Z,62.23
2023-04-07T11:43:18.091Z,62.24
2023-04-07T11:46:23.777Z,61.72
2023-04-07T11:49:29.267Z,62.59
2023-04-07T11:52:42.284Z,62.69
2023-04-07T11:55:45.390Z,62.66
2023-04-07T11:58:49.335Z,64.37
2023-04-07T12:01:57.129Z,63.73
2023-04-07T12:05:01.247Z,66.81
2023-04-07T12:08:04.841Z,65.86
2023-04-07T12:11:09.227Z,66.04
2023-04-07T12:14:12.087Z,65.27
2023-04-07T12:17:23.820Z,64.58
2023-04-07T12:20:26.694Z,66.34
2023-04-07T12:23:29.939Z,66.78
2023-04-07T12:26:33.162Z,64.99
2023-04-07T12:29:37.153Z,66.61
2023-04-07T12:32:41.781Z,66.04
2023-04-07T12:35:45.289Z,67.46
2023-04-07T12:38:48.305Z,65.47
2023-04-07T12:41:53.279Z,65.77
2023-04-07T12:44:58.717Z,66.05
2023-04-07T12:48:04.034Z,66.98
2023-04-07T12:51:07.088Z,67.11
2023-04-07T12:54:10.051Z,67.11
2023-04-07T12:57:13.421Z,67.58
2023-04-07T13:00:16.745Z,66.96
2023-04-07T13:03:22.919Z,66.33
2023-04-07T13:06:26.893Z,67.94
2023-04-07T13:09:30.388Z,66.33
2023-04-07T13:12:34.023Z,67.77
2023-04-07T13:15:37.366Z,66.95
2023-04-07T13:18:41.730Z,68.30
2023-04-07T13:21:47.254Z,68.09
2023-04-07T13:24:50.875Z,68.00
2023-04-07T13:27:53.775Z,68.40
2023-04-07T13:30:57.131Z,67.49
2023-04-07T13:34:01.906Z,68.06
2023-04-07T13:37:05.486Z,69.42
2023-04-07T13:40:09.984Z,68.30
2023-04-07T13:43:13.104Z,68.01
2023-04-07T13:46:28.069Z,67.60
2023-04-07T13:49:33.141Z,67.49
2023-04-07T13:52:36.658Z,66.85
2023-04-07T13:55:40.086Z,67.43
2023-04-07T13:58:43.255Z,66.81
2023-04-07T14:01:46.561Z,67.13
2023-04-07T14:04:50.810Z,67.85
2023-04-07T14:07:54.547Z,67.22
2023-04-07T14:10:57.341Z,67.36
2023-04-07T14:14:00.499Z,66.31
2023-04-07T14:17:04.386Z,67.36
2023-04-07T14:20:11.988Z,67.26
2023-04-07T14:23:18.656Z,68.05
2023-04-07T14:26:29.234Z,68.32
2023-04-07T14:29:32.426Z,67.65
2023-04-07T14:32:35.517Z,68.46
2023-04-07T14:35:40.263Z,69.90
2023-04-07T14:38:43.371Z,68.48
2023-04-07T14:41:47.768Z,69.34
2023-04-07T14:44:51.380Z,69.30
2023-04-07T14:47:54.389Z,68.36
2023-04-07T14:51:08.896Z,69.36
2023-04-07T14:54:12.946Z,68.91
2023-04-07T14:57:16.407Z,68.07
2023-04-07T15:00:19.518Z,68.20
2023-04-07T15:03:23.543Z,68.03
2023-04-07T15:06:28.250Z,69.66
2023-04-07T15:09:31.229Z,69.57
2023-04-07T15:12:34.200Z,68.96
2023-04-07T15:15:37.249Z,69.23
2023-04-07T15:18:41.933Z,68.59
2023-04-07T15:21:46.516Z,69.71
2023-04-07T15:24:49.390Z,69.47
2023-04-07T15:27:52.555Z,68.60
2023-04-07T15:30:56.423Z,68.77
2023-04-07T15:33:59.201Z,69.49
2023-04-07T15:37:04.108Z,70.20
2023-04-07T15:40:08.534Z,70.33
2023-04-07T15:43:13.931Z,72.28
2023-04-07T15:46:17.174Z,70.90
2023-04-07T15:49:24.243Z,70.02
2023-04-07T15:52:30.071Z,70.82
2023-04-07T15:55:33.246Z,70.86
2023-04-07T15:58:36.212Z,71.39
2023-04-07T16:01:39.449Z,71.57
2023-04-07T16:04:42.994Z,72.78
2023-04-07T16:07:47.706Z,71.13
2023-04-07T16:10:50.387Z,71.90
2023-04-07T16:13:53.099Z,72.59
2023-04-07T16:16:58.669Z,73.49
2023-04-07T16:20:02.002Z,74.21
2023-04-07T16:23:07.273Z,73.86
2023-04-07T16:26:11.039Z,74.56
2023-04-07T16:29:13.898Z,75.84
2023-04-07T16:32:16.567Z,74.62
2023-04-07T16:35:19.619Z,74.88
2023-04-07T16:38:24.109Z,74.93
2023-04-07T16:41:27.424Z,73.44
2023-04-07T16:44:30.342Z,74.05
2023-04-07T16:47:33.773Z,75.65
2023-04-07T16:50:37.373Z,75.45
2023-04-07T16:53:41.605Z,75.30
2023-04-07T16:56:44.504Z,74.81
2023-04-07T16:59:48.449Z,75.01
2023-04-07T17:02:51.314Z,75.78
2023-04-07T17:05:54.211Z,76.53
2023-04-07T17:08:58.341Z,75.84
2023-04-07T17:12:02.213Z,76.41
2023-04-07T17:15:05.877Z,76.78
2023-04-07T17:18:08.689Z,76.93
2023-04-07T17:21:12.220Z,76.99
2023-04-07T17:24:17.591Z,75.48
2023-04-07T17:27:20.598Z,76.06
2023-04-07T17:30:23.298Z,76.15
2023-04-07T17:33:33.653Z,75.96
2023-04-07T17:36:37.543Z,76.05
2023-04-07T17:39:41.981Z,76.47
2023-04-07T17:42:44.667Z,76.77
2023-04-07T17:45:47.496Z,77.57
2023-04-07T17:48:51.713Z,77.70
2023-04-07T17:51:55.445Z,77.11
2023-04-07T17:54:59.883Z,78.77
2023-04-07T17:58:02.897Z,78.09
2023-04-07T18:01:06.057Z,78.00
2023-04-07T18:04:09.171Z,77.33
2023-04-07T18:07:13.529Z,75.38
2023-04-07T18:10:18.364Z,75.64
2023-04-07T18:13:21.433Z,77.06
2023-04-07T18:16:26.357Z,75.54
2023-04-07T18:19:31.155Z,76.74
2023-04-07T18:22:34.378Z,77.90
2023-04-07T18:25:39.493Z,78.67
2023-04-07T18:28:42.237Z,76.93
2023-04-07T18:31:45.239Z,77.85
2023-04-07T18:34:48.802Z,77.17
2023-04-07T18:37:52.030Z,76.77
2023-04-07T18:40:56.701Z,77.36
2023-04-07T18:43:59.712Z,78.25
2023-04-07T18:47:02.908Z,77.63
2023-04-07T18:50:07.172Z,78.30
2023-04-07T18:53:10.549Z,77.80
2023-04-07T18:56:14.936Z,76.78
2023-04-07T18:59:18.036Z,76.29
2023-04-07T19:02:21.030Z,78.13
2023-04-07T19:05:25.827Z,77.60
2023-04-07T19:08:29.085Z,77.84
2023-04-07T19:11:33.195Z,78.11
2023-04-07T19:14:36.126Z,76.65
2023-04-07T19:17:41.008Z,77.45
2023-04-07T19:20:44.525Z,78.18
2023-04-07T19:23:47.788Z,77.42
2023-04-07T19:26:52.643Z,78.03
2023-04-07T19:29:55.405Z,78.09
2023-04-07T19:32:58.314Z,79.23
2023-04-07T19:36:01.449Z,79.80
2023-04-07T19:39:05.429Z,79.54
2023-04-07T19:42:09.640Z,78.93
2023-04-07T19:45:13.135Z,79.02
2023-04-07T19:48:17.265Z,79.89
2023-04-07T19:51:20.801Z,79.51
2023-04-07T19:54:23.657Z,76.43
2023-04-07T19:57:28.568Z,75.23
2023-04-07T20:00:33.112Z,77.73
2023-04-07T20:03:39.602Z,78.40
2023-04-07T20:06:42.903Z,77.84
2023-04-07T20:09:46.047Z,76.73
2023-04-07T20:12:51.793Z,75.40
2023-04-07T20:15:55.601Z,75.24
2023-04-07T20:18:58.415Z,76.34
2023-04-07T20:22:01.136Z,76.61
2023-04-07T20:25:05.474Z,76.37
2023-04-07T20:28:09.874Z,75.14
2023-04-07T20:31:12.628Z,75.58
2023-04-07T20:34:16.436Z,74.07
2023-04-07T20:37:19.511Z,74.44
2023-04-07T20:40:22.639Z,77.17
2023-04-07T20:43:27.084Z,75.86
2023-04-07T20:46:29.953Z,75.46
2023-04-07T20:49:33.179Z,74.85
2023-04-07T20:52:39.461Z,74.75
2023-04-07T20:55:42.441Z,75.47
2023-04-07T20:58:48.363Z,76.39
2023-04-07T21:01:51.992Z,75.54
2023-04-07T21:04:54.888Z,75.18
2023-04-07T21:07:58.089Z,75.71
2023-04-07T21:11:01.343Z,75.55
2023-04-07T21:14:08.826Z,75.03
2023-04-07T21:17:11.572Z,75.52
2023-04-07T21:20:14.528Z,74.70
2023-04-07T21:23:17.961Z,73.61
2023-04-07T21:26:21.278Z,75.79
2023-04-07T21:29:25.724Z,76.45
2023-04-07T21:32:28.533Z,78.24
2023-04-07T21:35:31.649Z,76.72
2023-04-07T21:38:34.403Z,75.77
2023-04-07T21:41:37.395Z,74.93
2023-04-07T21:44:42.237Z,75.94
2023-04-07T21:47:45.309Z,76.34
2023-04-07T21:50:49.085Z,75.74
2023-04-07T21:53:52.319Z,74.75
2023-04-07T21:56:55.487Z,75.21
2023-04-07T22:00:00.046Z,76.02
2023-04-07T22:03:02.926Z,77.37
2023-04-07T22:06:07.450Z,76.55
2023-04-07T22:09:11.106Z,76.87
2023-04-07T22:12:13.986Z,76.90
2023-04-07T22:15:18.620Z,76.40
2023-04-07T22:18:22.222Z,77.99
2023-04-07T22:21:25.297Z,77.29
2023-04-07T22:24:27.999Z,77.88
2023-04-07T22:27:31.116Z,78.88
2023-04-07T22:30:35.955Z,78.87
2023-04-07T22:33:38.784Z,76.29
2023-04-07T22:36:41.569Z,77.59
2023-04-07T22:39:46.253Z,76.85
2023-04-07T22:42:49.511Z,77.24
2023-04-07T22:45:53.789Z,76.90
2023-04-07T22:48:56.522Z,78.13
2023-04-07T22:51:59.556Z,77.21
2023-04-07T22:55:02.641Z,77.17
2023-04-07T22:58:05.937Z,77.15
2023-04-07T23:01:10.389Z,78.30
2023-04-07T23:04:14.788Z,78.17
2023-04-07T23:07:17.665Z,77.59
2023-04-07T23:10:20.703Z,77.35
2023-04-07T23:13:24.061Z,76.65
2023-04-07T23:16:30.127Z,77.71
2023-04-07T23:19:33.041Z,78.73
2023-04-07T23:22:36.018Z,79.04
2023-04-07T23:25:38.776Z,78.35
2023-04-07T23:28:41.674Z,76.55
2023-04-07T23:31:46.011Z,79.25
2023-04-07T23:34:48.754Z,78.97
2023-04-07T23:41:12.486Z,79.31
2023-04-07T23:44:15.709Z,77.07
2023-04-07T23:47:20.583Z,77.10
2023-04-07T23:50:23.365Z,77.97
2023-04-07T23:53:26.356Z,77.66
2023-04-07T23:56:30.007Z,76.98
2023-04-07T23:59:32.877Z,77.84
